»·PEaware :: WAT169 KSNA-KRNO

WAT169 :: KSNA-KRNO

FLIGHT INFORMATION

Flight Status: Arrived
Operator:
Walker Air Transport
More flights by this operator :: More flights under this callsign
Pilot: Marty P. (27464)
Aircraft: DASSAULT AVIATION FALCON 50
(FA50)
More flights by this aircraft type
Origin: KSNA John Wayne-Orange Co
United States
Destination: KRNO Reno/Tahoe Intl
United States
More flights between these airports :: More routes between these airports
Route: HHERO3 EHF FMG
File this flight plan on PilotEdge
Remarks: Good afternoon )
Altitude:
(Current/Filed)
38,000ft
Speed:
(Current/Filed)
470kts
Departed: 25-Nov-20 02:38 PM
Arrived: 25-Nov-20 03:40 PM
Distance/Time
Traveled:
361nm/1:02
Distance/Time
To Go:
Arrived

Flight Plot

Page will automatically refresh every two minutes.

Flight plan parsing failed; only flown route is shown


Map Options




Map Legend


Flown Route
Filed Route
Departure Airport
Arrival Airport
Navaid (VOR, NDB)
Fix

Horizontal Profiles

Position Reports

Time Latitude Longitude Heading Altitude Ground
Speed
25-Nov-20 14:20 33.672489 -117.867164 208 63ft 0kts
25-Nov-20 14:21 33.672489 -117.867164 208 63ft 0kts
25-Nov-20 14:22 33.672489 -117.867164 208 63ft 0kts
25-Nov-20 14:23 33.672489 -117.867164 208 63ft 0kts
25-Nov-20 14:24 33.672489 -117.867164 208 63ft 0kts
25-Nov-20 14:25 33.672489 -117.867164 208 63ft 0kts
25-Nov-20 14:26 33.672489 -117.867164 208 63ft 0kts
25-Nov-20 14:27 33.672489 -117.867164 208 63ft 0kts
25-Nov-20 14:28 33.672489 -117.867164 208 63ft 0kts
25-Nov-20 14:29 33.672489 -117.867164 208 63ft 0kts
25-Nov-20 14:30 33.672431 -117.867202 209 63ft 0kts
25-Nov-20 14:31 33.673342 -117.866965 36 63ft 7kts
25-Nov-20 14:32 33.676123 -117.865195 27 63ft 11kts
25-Nov-20 14:33 33.679343 -117.863152 27 63ft 14kts
25-Nov-20 14:34 33.680649 -117.863074 301 63ft 3kts
25-Nov-20 14:35 33.680688 -117.863157 297 63ft 0kts
25-Nov-20 14:36 33.680518 -117.865781 208 63ft 34kts
25-Nov-20 14:37 33.649159 -117.885520 208 1065ft 172kts
25-Nov-20 14:38 33.587677 -117.896734 191 4270ft 246kts
25-Nov-20 14:39 33.532251 -117.944046 223 5007ft 249kts
25-Nov-20 14:40 33.482875 -118.001025 231 8036ft 235kts
25-Nov-20 14:41 33.446580 -118.071599 240 8005ft 262kts
25-Nov-20 14:43 33.414558 -118.149837 265 10907ft 256kts
25-Nov-20 14:44 33.429781 -118.250362 284 12901ft 348kts
25-Nov-20 14:45 33.464790 -118.359024 296 16574ft 361kts
25-Nov-20 14:46 33.513332 -118.467009 304 19460ft 381kts
25-Nov-20 14:47 33.617885 -118.484886 11 21759ft 430kts
25-Nov-20 14:48 33.737447 -118.460099 358 23698ft 441kts
25-Nov-20 14:49 33.858386 -118.459657 356 25405ft 453kts
25-Nov-20 14:50 33.985470 -118.459886 356 26968ft 463kts
25-Nov-20 14:51 34.113130 -118.476950 348 28336ft 467kts
25-Nov-20 14:52 34.242195 -118.496826 348 29363ft 477kts
25-Nov-20 14:53 34.372926 -118.516890 348 31545ft 452kts
25-Nov-20 14:54 34.493124 -118.535469 347 33808ft 433kts
25-Nov-20 14:55 34.611540 -118.553871 347 35382ft 429kts
25-Nov-20 14:56 34.728988 -118.572151 347 36799ft 426kts
25-Nov-20 14:57 34.845919 -118.590418 346 37984ft 426kts
25-Nov-20 14:58 34.965760 -118.609270 346 38183ft 450kts
25-Nov-20 14:59 35.073593 -118.670387 309 38200ft 438kts
25-Nov-20 14:59 35.149135 -118.754544 312 38190ft 455kts
25-Nov-20 15:01 35.262592 -118.870647 313 38193ft 466kts
25-Nov-20 15:01 35.344005 -118.953696 313 38192ft 469kts
25-Nov-20 15:03 35.460448 -119.072896 313 38191ft 471kts
25-Nov-20 15:03 35.562262 -119.119527 350 38198ft 506kts
25-Nov-20 15:04 35.701962 -119.127992 349 38192ft 507kts
25-Nov-20 15:05 35.841010 -119.144366 347 38202ft 506kts
25-Nov-20 15:06 35.979430 -119.162616 347 38210ft 507kts
25-Nov-20 15:07 36.116027 -119.180762 346 38207ft 508kts
25-Nov-20 15:08 36.255958 -119.199392 346 38205ft 507kts
25-Nov-20 15:09 36.394858 -119.217961 346 38206ft 507kts
25-Nov-20 15:10 36.533222 -119.236526 345 38208ft 508kts
25-Nov-20 15:11 36.671125 -119.255106 345 38208ft 508kts
25-Nov-20 15:12 36.807623 -119.273524 345 38208ft 508kts
25-Nov-20 15:13 36.946481 -119.292374 345 38208ft 508kts
25-Nov-20 15:14 37.085366 -119.311262 345 38209ft 508kts
25-Nov-20 15:15 37.211156 -119.328445 344 38163ft 508kts
25-Nov-20 15:16 37.343240 -119.346556 344 38139ft 508kts
25-Nov-20 15:17 37.489190 -119.366633 344 38140ft 507kts
25-Nov-20 15:18 37.628602 -119.385896 344 38141ft 507kts
25-Nov-20 15:19 37.764798 -119.404789 343 38120ft 507kts
25-Nov-20 15:20 37.902686 -119.423998 344 35910ft 508kts
25-Nov-20 15:21 38.038612 -119.442928 343 32976ft 507kts
25-Nov-20 15:22 38.177866 -119.462586 343 29987ft 515kts
25-Nov-20 15:23 38.318406 -119.482328 344 26961ft 514kts
25-Nov-20 15:24 38.457879 -119.501875 345 23902ft 486kts
25-Nov-20 15:25 38.582856 -119.519299 344 21549ft 432kts
25-Nov-20 15:26 38.699741 -119.536160 344 19997ft 415kts
25-Nov-20 15:27 38.811588 -119.552040 344 18811ft 381kts
25-Nov-20 15:28 38.911644 -119.565905 344 16939ft 301kts
25-Nov-20 15:29 38.988597 -119.577247 340 13776ft 271kts
25-Nov-20 15:30 39.052618 -119.603968 333 12130ft 233kts
25-Nov-20 15:31 39.113620 -119.631807 333 12152ft 234kts
25-Nov-20 15:32 39.175406 -119.661144 333 11201ft 237kts
25-Nov-20 15:33 39.237003 -119.692661 333 10600ft 237kts
25-Nov-20 15:34 39.296736 -119.724154 333 10295ft 216kts
25-Nov-20 15:35 39.348825 -119.751781 333 9073ft 198kts
25-Nov-20 15:36 39.399761 -119.766990 357 6916ft 164kts
25-Nov-20 15:37 39.441592 -119.766898 359 5712ft 112kts
25-Nov-20 15:38 39.476937 -119.766870 2 4692ft 121kts
25-Nov-20 15:39 39.497348 -119.766123 89 4422ft 11kts
25-Nov-20 15:40 39.499356 -119.765188 357 4422ft 8kts
25-Nov-20 15:41 39.500001 -119.764465 212 4422ft 10kts

Navigation Log

Ident Type
Flight plan parsing failed, navigation log unavailable